Time;durP1;ratioP1;P1;durP2;ratioP2;P2;SDS_P1;SDS_P2;PMS_P1;PMS_P2;Temp;Humidity;BMP_temperature;BMP_pressure;BME280_temperature;BME280_humidity;BME280_pressure;Samples;Min_cycle;Max_cycle;Signal;HPM_P1;HPM_P2
2022/03/29 00:00:53;;;;;;;19.65;11.90;;;10.70;99.90;;;;;;5003755;28;20381;-52
2022/03/29 00:03:18;;;;;;;20.05;12.18;;;11.10;99.90;;;;;;5008559;28;20827;-52
2022/03/29 00:05:44;;;;;;;21.95;11.93;;;10.60;99.90;;;;;;5009536;28;20531;-53
2022/03/29 00:08:10;;;;;;;23.30;12.80;;;10.60;99.90;;;;;;5005862;28;20486;-52
2022/03/29 00:10:36;;;;;;;23.97;11.40;;;10.60;99.90;;;;;;4991451;28;20379;-53
2022/03/29 00:13:01;;;;;;;22.33;11.95;;;10.60;99.90;;;;;;4992115;28;20390;-53
2022/03/29 00:15:28;;;;;;;23.73;13.00;;;10.60;99.90;;;;;;4990947;28;20389;-52
2022/03/29 00:17:54;;;;;;;21.08;12.95;;;10.50;99.90;;;;;;4991693;28;20753;-52
2022/03/29 00:20:20;;;;;;;22.67;12.30;;;10.40;99.90;;;;;;4991045;28;20460;-51
2022/03/29 00:22:50;;;;;;;22.30;12.43;;;10.40;99.90;;;;;;4991116;28;20415;-52
2022/03/29 00:25:16;;;;;;;20.35;12.93;;;10.30;99.90;;;;;;4990961;28;20390;-52
2022/03/29 00:27:43;;;;;;;22.17;12.88;;;10.30;99.90;;;;;;4990917;28;20393;-52
2022/03/29 00:30:11;;;;;;;23.67;13.40;;;10.30;99.90;;;;;;4974064;28;20399;-52
2022/03/29 00:32:40;;;;;;;21.60;13.27;;;10.20;99.90;;;;;;4990790;28;20398;-55
2022/03/29 00:35:06;;;;;;;19.80;12.50;;;10.20;99.90;;;;;;4991415;28;20429;-52
2022/03/29 00:37:33;;;;;;;23.00;13.02;;;10.20;99.90;;;;;;4993156;28;20423;-52
2022/03/29 00:39:59;;;;;;;20.83;12.95;;;10.20;99.90;;;;;;5010605;28;20810;-51
2022/03/29 00:42:24;;;;;;;20.70;12.47;;;10.30;99.90;;;;;;4992955;28;20405;-52
2022/03/29 00:44:50;;;;;;;19.60;12.15;;;10.20;99.90;;;;;;4990151;28;20443;-53
2022/03/29 00:47:16;;;;;;;28.07;13.07;;;10.10;99.90;;;;;;5008140;28;20389;-53
2022/03/29 00:49:42;;;;;;;22.05;12.35;;;10.20;99.90;;;;;;5003635;28;21196;-52
2022/03/29 00:52:08;;;;;;;20.67;12.13;;;10.20;99.90;;;;;;4991110;28;20884;-53
2022/03/29 00:54:35;;;;;;;22.77;12.25;;;10.20;99.90;;;;;;4990007;28;20880;-53
2022/03/29 00:57:03;;;;;;;25.80;13.35;;;10.20;99.90;;;;;;4991639;28;20394;-53
2022/03/29 00:59:29;;;;;;;20.38;11.48;;;10.20;99.90;;;;;;5009823;28;20412;-53
2022/03/29 01:01:57;;;;;;;21.65;11.88;;;10.10;99.90;;;;;;5010794;28;20728;-58
2022/03/29 01:04:23;;;;;;;21.77;12.43;;;10.10;99.90;;;;;;5009733;28;20470;-51
2022/03/29 01:06:50;;;;;;;20.95;11.73;;;10.10;99.90;;;;;;5010406;28;20385;-53
2022/03/29 01:09:16;;;;;;;22.83;11.43;;;10.20;99.90;;;;;;5010397;28;20769;-53
2022/03/29 01:11:43;;;;;;;21.17;10.90;;;10.30;99.90;;;;;;4992808;28;20391;-53
2022/03/29 01:14:09;;;;;;;19.10;10.73;;;10.30;99.90;;;;;;4991056;28;20387;-53
2022/03/29 01:19:21;;;;;;;22.77;11.00;;;10.30;99.90;;;;;;4990495;28;20476;-52
2022/03/29 01:22:00;;;;;;;23.33;11.47;;;10.40;99.90;;;;;;4990452;28;20430;-53
2022/03/29 01:24:27;;;;;;;21.08;11.95;;;10.50;99.90;;;;;;4989999;28;20876;-52
2022/03/29 01:26:56;;;;;;;21.15;11.15;;;10.60;99.90;;;;;;4990732;28;20541;-53
2022/03/29 01:29:22;;;;;;;18.73;11.25;;;10.60;99.90;;;;;;4990519;28;20390;-51
2022/03/29 01:31:49;;;;;;;24.45;11.98;;;10.60;99.90;;;;;;4990488;28;20389;-54
2022/03/29 01:34:17;;;;;;;20.80;11.40;;;10.50;99.90;;;;;;4973530;28;20390;-53
2022/03/29 01:36:42;;;;;;;21.20;11.50;;;10.50;99.90;;;;;;4989953;28;20417;-53
2022/03/29 01:39:08;;;;;;;22.90;13.35;;;10.40;99.90;;;;;;4990737;28;20446;-53
2022/03/29 01:41:34;;;;;;;22.15;12.38;;;10.50;99.90;;;;;;4988724;28;20426;-53
2022/03/29 01:43:59;;;;;;;28.20;13.10;;;10.50;99.90;;;;;;4989387;28;20398;-53
2022/03/29 01:46:25;;;;;;;21.85;12.77;;;10.40;99.90;;;;;;4989944;28;20390;-51
2022/03/29 01:48:51;;;;;;;26.05;11.77;;;10.20;99.90;;;;;;4990692;28;20386;-53
2022/03/29 01:51:17;;;;;;;23.60;12.83;;;10.20;99.90;;;;;;4990673;28;20947;-53
2022/03/29 01:53:46;;;;;;;22.90;13.98;;;10.10;99.90;;;;;;4990048;28;20578;-52
2022/03/29 01:56:11;;;;;;;20.65;14.65;;;10.00;99.90;;;;;;4990643;28;20398;-53
2022/03/29 01:58:37;;;;;;;23.90;14.15;;;10.00;99.90;;;;;;4989725;28;20875;-53
2022/03/29 02:01:03;;;;;;;20.17;13.70;;;10.00;99.90;;;;;;4990546;28;21033;-53
2022/03/29 02:03:29;;;;;;;26.02;14.20;;;10.10;99.90;;;;;;4989392;28;20415;-53
2022/03/29 02:05:54;;;;;;;25.10;14.38;;;10.00;99.90;;;;;;4990452;28;20954;-53
2022/03/29 02:08:20;;;;;;;22.10;15.63;;;9.90;99.90;;;;;;4990149;28;20878;-52
2022/03/29 02:10:46;;;;;;;22.02;13.45;;;9.90;99.90;;;;;;4988464;28;20398;-53
2022/03/29 02:13:12;;;;;;;33.00;16.60;;;9.80;99.90;;;;;;4989927;28;20744;-53
2022/03/29 02:15:38;;;;;;;25.98;13.23;;;9.80;99.90;;;;;;4988372;28;20389;-53
2022/03/29 02:18:05;;;;;;;22.17;11.80;;;9.70;99.90;;;;;;4990611;28;20928;-53
2022/03/29 02:20:31;;;;;;;23.55;11.55;;;9.60;99.90;;;;;;4989760;28;20413;-53
2022/03/29 02:23:06;;;;;;;21.90;11.55;;;9.70;99.90;;;;;;4993792;28;20406;-52
2022/03/29 02:25:32;;;;;;;27.83;13.68;;;9.50;99.90;;;;;;4993425;28;20387;-53
2022/03/29 02:27:58;;;;;;;21.33;12.20;;;9.60;99.90;;;;;;4993897;28;20426;-53
2022/03/29 02:30:24;;;;;;;25.08;11.50;;;9.70;99.90;;;;;;4996022;28;20432;-51
2022/03/29 02:32:49;;;;;;;21.90;11.70;;;9.70;99.90;;;;;;5013223;28;20381;-52
2022/03/29 02:35:15;;;;;;;22.75;11.32;;;9.70;99.90;;;;;;5013732;28;20392;-53
2022/03/29 02:37:41;;;;;;;23.05;12.90;;;9.50;99.90;;;;;;5012879;28;20424;-53
2022/03/29 02:40:09;;;;;;;22.30;11.32;;;9.40;99.90;;;;;;5014036;28;20393;-53
2022/03/29 02:42:51;;;;;;;22.60;12.15;;;9.40;99.90;;;;;;5012723;28;20432;-53
2022/03/29 02:45:22;;;;;;;22.25;12.38;;;9.40;99.90;;;;;;5013227;28;20845;-53
2022/03/29 02:47:50;;;;;;;22.77;12.88;;;9.40;99.90;;;;;;5012966;28;20377;-53
2022/03/29 02:50:17;;;;;;;31.95;17.55;;;9.50;99.90;;;;;;5013199;28;20404;-53
2022/03/29 02:52:45;;;;;;;23.30;13.10;;;9.50;99.90;;;;;;5012392;28;20578;-53
2022/03/29 02:55:11;;;;;;;22.45;12.07;;;9.40;99.90;;;;;;5013178;28;20385;-52
2022/03/29 02:57:37;;;;;;;26.50;13.50;;;9.40;99.90;;;;;;5012496;28;20405;-53
2022/03/29 03:00:05;;;;;;;25.10;13.43;;;9.40;99.90;;;;;;5013059;28;20425;-53
2022/03/29 03:02:32;;;;;;;22.60;12.30;;;9.00;99.90;;;;;;5011296;28;20411;-53
2022/03/29 03:04:59;;;;;;;23.25;12.45;;;9.30;99.90;;;;;;5007385;28;20401;-53
2022/03/29 03:07:25;;;;;;;24.27;14.10;;;9.30;99.90;;;;;;5001462;28;20386;-51
2022/03/29 03:09:50;;;;;;;25.50;13.30;;;9.30;99.90;;;;;;4993090;28;20390;-53
2022/03/29 03:12:16;;;;;;;24.13;14.00;;;9.30;99.90;;;;;;4992556;28;20410;-53
2022/03/29 03:14:42;;;;;;;21.70;12.27;;;9.30;99.90;;;;;;5011933;28;20393;-53
2022/03/29 03:17:08;;;;;;;22.55;12.60;;;9.20;99.90;;;;;;4995265;28;20794;-53
2022/03/29 03:19:34;;;;;;;21.00;12.07;;;9.20;99.90;;;;;;5011948;28;20490;-53
2022/03/29 03:22:00;;;;;;;26.20;13.02;;;9.10;99.90;;;;;;5012522;28;20413;-53
2022/03/29 03:24:26;;;;;;;22.60;12.10;;;8.90;99.90;;;;;;5008583;28;20477;-51
2022/03/29 03:26:53;;;;;;;22.93;12.00;;;9.00;99.90;;;;;;4992869;28;20469;-53
2022/03/29 03:29:19;;;;;;;22.90;12.30;;;9.00;99.90;;;;;;4992585;28;20379;-53
2022/03/29 03:31:44;;;;;;;26.65;12.65;;;9.10;99.90;;;;;;5004431;28;20454;-53
2022/03/29 03:34:10;;;;;;;21.53;12.17;;;9.10;99.90;;;;;;4990267;28;20525;-53
2022/03/29 03:36:35;;;;;;;23.63;13.25;;;9.20;99.90;;;;;;5006769;28;20404;-52
2022/03/29 03:39:02;;;;;;;26.13;12.90;;;9.70;99.90;;;;;;5004252;28;20408;-52
2022/03/29 03:41:27;;;;;;;27.75;13.82;;;8.90;99.90;;;;;;5004281;28;20402;-52
2022/03/29 03:43:54;;;;;;;24.20;12.68;;;8.90;99.90;;;;;;4993033;28;20383;-53
2022/03/29 03:46:19;;;;;;;21.10;11.88;;;8.80;99.90;;;;;;4994208;28;20401;-53
2022/03/29 03:48:45;;;;;;;23.92;13.57;;;8.70;99.90;;;;;;4997727;28;20969;-53
2022/03/29 03:51:11;;;;;;;21.07;12.70;;;8.60;99.90;;;;;;4996889;28;20824;-53
2022/03/29 03:53:37;;;;;;;24.63;12.55;;;8.60;99.90;;;;;;5000823;28;20392;-53
2022/03/29 03:56:03;;;;;;;27.23;13.90;;;8.60;99.90;;;;;;5012012;28;20428;-52
2022/03/29 03:58:28;;;;;;;24.17;12.18;;;8.60;99.90;;;;;;5011036;28;20874;-52
2022/03/29 04:00:54;;;;;;;22.25;12.95;;;8.80;99.90;;;;;;5009719;28;20417;-53
2022/03/29 04:03:20;;;;;;;25.83;13.10;;;8.70;99.90;;;;;;5011628;28;20750;-53
2022/03/29 04:05:45;;;;;;;23.63;12.52;;;8.60;99.90;;;;;;5010715;28;20377;-53
2022/03/29 04:08:11;;;;;;;26.30;13.20;;;8.50;99.90;;;;;;5011498;28;20463;-52
2022/03/29 04:10:37;;;;;;;25.63;13.00;;;8.50;99.90;;;;;;5010748;28;20379;-52
2022/03/29 04:13:04;;;;;;;23.10;13.70;;;8.50;99.90;;;;;;5011430;28;20862;-53
2022/03/29 04:15:30;;;;;;;21.73;11.87;;;8.40;99.90;;;;;;5011091;28;20385;-53
2022/03/29 04:17:57;;;;;;;23.35;12.20;;;8.40;99.90;;;;;;5011507;28;20550;-52
2022/03/29 04:20:22;;;;;;;22.92;11.90;;;8.40;99.90;;;;;;5011459;28;20401;-53
2022/03/29 04:22:48;;;;;;;19.83;11.40;;;8.30;99.90;;;;;;5009428;28;20472;-52
2022/03/29 04:25:14;;;;;;;24.70;12.18;;;8.30;99.90;;;;;;5010767;28;20405;-53
2022/03/29 04:27:40;;;;;;;26.20;12.00;;;8.20;99.90;;;;;;5010103;28;20898;-53
2022/03/29 04:30:06;;;;;;;21.77;12.83;;;8.20;99.90;;;;;;5010906;28;20528;-52
2022/03/29 04:32:34;;;;;;;22.47;12.33;;;8.20;99.90;;;;;;5010510;28;20396;-52
2022/03/29 04:35:00;;;;;;;23.85;13.00;;;8.10;99.90;;;;;;5010882;28;20808;-53
2022/03/29 04:37:26;;;;;;;24.50;12.13;;;8.10;99.90;;;;;;5010223;28;20384;-51
2022/03/29 04:39:51;;;;;;;22.20;12.73;;;8.00;99.90;;;;;;5010796;28;20377;-53
2022/03/29 04:42:18;;;;;;;24.83;12.20;;;7.90;99.90;;;;;;5011261;28;20416;-53
2022/03/29 04:44:44;;;;;;;23.10;11.82;;;7.80;99.90;;;;;;5009300;28;20423;-52
2022/03/29 04:47:10;;;;;;;24.77;12.30;;;7.90;99.90;;;;;;5010542;28;20866;-53
2022/03/29 04:49:35;;;;;;;21.77;11.43;;;8.00;99.90;;;;;;4995611;28;20413;-50
2022/03/29 04:52:01;;;;;;;24.20;11.48;;;8.10;99.90;;;;;;5010632;28;20384;-50
2022/03/29 04:54:27;;;;;;;23.50;11.37;;;8.20;99.90;;;;;;5010746;28;20377;-50
2022/03/29 04:56:53;;;;;;;26.75;12.77;;;8.20;99.90;;;;;;5009964;28;20393;-50
2022/03/29 04:59:19;;;;;;;24.23;12.77;;;8.20;99.90;;;;;;5010221;28;20408;-51
2022/03/29 05:01:45;;;;;;;23.40;12.60;;;8.30;99.90;;;;;;5009655;28;20492;-52
2022/03/29 05:04:11;;;;;;;22.30;12.80;;;8.40;99.90;;;;;;5009909;28;20400;-50
2022/03/29 05:06:36;;;;;;;23.70;13.05;;;8.40;99.90;;;;;;5009274;28;20385;-50
2022/03/29 05:09:03;;;;;;;23.92;12.80;;;8.50;99.90;;;;;;5009781;28;20473;-52
2022/03/29 05:11:29;;;;;;;28.17;13.60;;;8.50;99.90;;;;;;5009163;28;20855;-52
2022/03/29 05:13:55;;;;;;;26.23;12.40;;;8.50;99.90;;;;;;5010051;28;20909;-50
2022/03/29 05:16:21;;;;;;;26.33;12.55;;;8.50;99.90;;;;;;5009917;28;20473;-52
2022/03/29 05:18:47;;;;;;;24.35;13.18;;;8.60;99.90;;;;;;5008828;28;20426;-52
2022/03/29 05:21:13;;;;;;;25.00;13.35;;;8.60;99.90;;;;;;5009469;28;20428;-51
2022/03/29 05:23:39;;;;;;;27.08;13.02;;;8.70;99.90;;;;;;5008425;28;20440;-52
2022/03/29 05:26:04;;;;;;;23.60;11.63;;;8.80;99.90;;;;;;5009626;28;20419;-51
2022/03/29 05:28:30;;;;;;;24.30;12.75;;;8.80;99.90;;;;;;5008954;28;20385;-52
2022/03/29 05:30:56;;;;;;;21.50;11.67;;;8.90;99.90;;;;;;5009305;28;20816;-52
2022/03/29 05:33:22;;;;;;;24.47;11.23;;;8.90;99.90;;;;;;5009473;28;20434;-52
2022/03/29 05:35:48;;;;;;;21.77;11.30;;;8.90;99.90;;;;;;5008399;28;20462;-52
2022/03/29 05:38:14;;;;;;;25.17;11.82;;;8.90;99.90;;;;;;5009433;28;20408;-52
2022/03/29 05:40:40;;;;;;;23.93;11.60;;;9.10;99.90;;;;;;5008942;28;20392;-52
2022/03/29 05:43:11;;;;;;;25.58;13.13;;;9.30;99.90;;;;;;5009363;28;20885;-54
2022/03/29 05:45:38;;;;;;;25.48;12.77;;;9.40;99.90;;;;;;5008639;28;20446;-54
2022/03/29 05:50:49;;;;;;;22.92;12.35;;;9.50;99.90;;;;;;5009083;28;20433;-54
2022/03/29 05:53:15;;;;;;;29.70;13.17;;;9.60;99.90;;;;;;5009780;28;20416;-52
2022/03/29 05:55:40;;;;;;;29.60;12.90;;;9.70;99.90;;;;;;5008099;28;20439;-52
2022/03/29 05:58:06;;;;;;;24.48;12.98;;;9.70;99.90;;;;;;5009484;28;20413;-52
2022/03/29 06:00:32;;;;;;;26.53;13.70;;;10.00;99.90;;;;;;5008795;28;20385;-52
2022/03/29 06:02:58;;;;;;;33.50;13.98;;;10.40;99.90;;;;;;5009792;28;20381;-53
2022/03/29 06:05:24;;;;;;;24.50;13.00;;;10.80;99.90;;;;;;5001477;28;20412;-54
2022/03/29 06:07:50;;;;;;;23.27;13.50;;;11.00;99.90;;;;;;5009316;28;20396;-52
2022/03/29 06:10:16;;;;;;;26.63;12.45;;;11.10;99.90;;;;;;5009357;28;20422;-52
2022/03/29 06:12:45;;;;;;;24.13;13.43;;;11.10;99.90;;;;;;5008670;28;20393;-52
2022/03/29 06:15:12;;;;;;;23.27;12.93;;;11.10;99.90;;;;;;5009452;28;20393;-52
2022/03/29 06:17:38;;;;;;;24.83;13.38;;;11.20;99.90;;;;;;5008828;28;20424;-52
2022/03/29 06:20:06;;;;;;;26.00;13.70;;;11.20;99.90;;;;;;5009340;28;20405;-52
2022/03/29 06:22:35;;;;;;;27.30;14.38;;;11.10;99.90;;;;;;4990638;28;20416;-51
2022/03/29 06:25:01;;;;;;;24.48;13.15;;;11.20;99.90;;;;;;5009735;28;20826;-52
2022/03/29 06:27:27;;;;;;;25.38;12.80;;;11.40;99.90;;;;;;5009110;28;20381;-51
2022/03/29 06:29:56;;;;;;;28.40;13.43;;;11.30;99.90;;;;;;5008947;28;20384;-52
2022/03/29 06:32:23;;;;;;;22.88;14.20;;;11.60;99.90;;;;;;5009554;28;20388;-53
2022/03/29 06:34:48;;;;;;;28.00;13.40;;;11.90;99.90;;;;;;4990981;28;20846;-52
2022/03/29 06:37:14;;;;;;;25.13;13.85;;;12.10;99.90;;;;;;5008973;28;20392;-52
2022/03/29 06:39:40;;;;;;;22.70;12.97;;;12.00;99.90;;;;;;5008730;28;20416;-52
2022/03/29 06:42:05;;;;;;;29.48;14.07;;;12.20;99.90;;;;;;5009161;28;20389;-52
2022/03/29 06:44:33;;;;;;;24.40;13.80;;;12.20;99.90;;;;;;5008947;28;20392;-51
2022/03/29 06:47:01;;;;;;;29.83;14.70;;;12.30;99.90;;;;;;5009110;28;20811;-52
2022/03/29 06:49:27;;;;;;;25.80;13.48;;;12.40;99.90;;;;;;4991486;28;20782;-52
2022/03/29 06:51:52;;;;;;;29.92;14.45;;;12.60;99.90;;;;;;5008414;28;20436;-52
2022/03/29 06:54:18;;;;;;;25.70;15.10;;;12.60;99.90;;;;;;5009084;28;20421;-52
2022/03/29 06:56:44;;;;;;;27.67;15.00;;;12.70;99.90;;;;;;5008519;28;20387;-52
2022/03/29 06:59:09;;;;;;;28.35;14.32;;;12.60;99.90;;;;;;5009044;28;20854;-52
2022/03/29 07:01:36;;;;;;;24.30;14.53;;;12.80;99.90;;;;;;5008413;28;20734;-52
2022/03/29 07:04:03;;;;;;;26.10;13.88;;;13.20;99.90;;;;;;5009262;28;20380;-52
2022/03/29 07:06:32;;;;;;;28.52;15.13;;;13.50;99.90;;;;;;5009176;28;20403;-51
2022/03/29 07:11:45;;;;;;;27.00;14.20;;;13.60;99.90;;;;;;5012079;28;20454;-53
2022/03/29 07:14:12;;;;;;;26.75;14.10;;;13.80;99.90;;;;;;5012458;28;20391;-53
2022/03/29 07:16:39;;;;;;;23.80;14.07;;;13.60;99.90;;;;;;5011684;28;20866;-52
2022/03/29 07:19:08;;;;;;;29.05;14.23;;;13.80;99.90;;;;;;5012412;28;20412;-53
2022/03/29 07:21:34;;;;;;;23.50;14.27;;;13.80;99.90;;;;;;5011313;28;20389;-53
2022/03/29 07:24:03;;;;;;;24.23;13.43;;;13.80;99.90;;;;;;5012333;28;20397;-53
2022/03/29 07:26:30;;;;;;;24.48;13.80;;;13.60;99.90;;;;;;5012137;28;20395;-52
2022/03/29 07:28:56;;;;;;;25.67;14.03;;;13.70;99.90;;;;;;5012014;28;20377;-53
2022/03/29 07:31:22;;;;;;;23.90;13.50;;;13.70;99.90;;;;;;5011305;28;20426;-52
2022/03/29 07:33:48;;;;;;;27.27;13.80;;;14.00;99.90;;;;;;4999359;28;21031;-53
2022/03/29 07:36:14;;;;;;;24.80;13.68;;;14.30;99.90;;;;;;4996799;28;20409;-53
2022/03/29 07:38:40;;;;;;;25.67;14.30;;;14.40;99.90;;;;;;4991633;28;20888;-53
2022/03/29 07:41:06;;;;;;;23.20;13.70;;;14.60;99.90;;;;;;4992268;28;20478;-52
2022/03/29 07:43:31;;;;;;;27.10;13.93;;;15.00;99.90;;;;;;5010115;28;20480;-52
2022/03/29 07:45:58;;;;;;;24.15;13.80;;;15.50;99.90;;;;;;4992468;28;20832;-53
2022/03/29 07:48:23;;;;;;;23.27;14.18;;;15.90;99.90;;;;;;4975054;28;20423;-53
2022/03/29 07:50:49;;;;;;;26.95;14.88;;;16.20;99.90;;;;;;4991482;28;21121;-53
2022/03/29 07:53:15;;;;;;;25.08;13.90;;;16.40;99.90;;;;;;4992088;28;20395;-53
2022/03/29 07:55:41;;;;;;;24.63;14.15;;;16.50;99.90;;;;;;4991918;28;20766;-53
2022/03/29 07:58:07;;;;;;;25.40;13.77;;;16.80;99.90;;;;;;4991987;28;20923;-53
2022/03/29 08:00:33;;;;;;;25.02;13.20;;;16.70;99.90;;;;;;5009807;28;20409;-53
2022/03/29 08:03:10;;;;;;;22.85;13.45;;;17.30;99.90;;;;;;5011853;28;20396;-53
2022/03/29 08:05:39;;;;;;;24.00;14.30;;;17.80;99.90;;;;;;5011103;28;20377;-53
2022/03/29 08:08:05;;;;;;;26.10;14.45;;;18.00;99.90;;;;;;5011250;28;20399;-53
2022/03/29 08:10:31;;;;;;;24.73;13.80;;;18.00;99.90;;;;;;4989888;28;20391;-52
2022/03/29 08:13:01;;;;;;;25.80;13.40;;;18.10;99.90;;;;;;4993401;28;20386;-54
2022/03/29 08:15:28;;;;;;;22.02;14.05;;;18.50;99.90;;;;;;5011731;28;20466;-54
2022/03/29 08:17:55;;;;;;;21.93;13.37;;;18.80;99.90;;;;;;5010693;28;20914;-54
2022/03/29 08:20:21;;;;;;;22.60;13.30;;;19.40;99.90;;;;;;5011191;28;20405;-54
2022/03/29 08:22:47;;;;;;;23.20;12.85;;;19.90;99.90;;;;;;5010358;28;20489;-54
2022/03/29 08:25:14;;;;;;;22.50;14.23;;;20.10;99.90;;;;;;5011328;28;20376;-54
2022/03/29 08:27:40;;;;;;;25.30;14.10;;;20.00;99.90;;;;;;5010504;28;20416;-53
2022/03/29 08:30:07;;;;;;;23.02;13.30;;;19.20;99.90;;;;;;5011259;28;20381;-54
2022/03/29 08:32:35;;;;;;;21.23;12.80;;;19.20;99.90;;;;;;5010456;28;20385;-53
2022/03/29 08:35:01;;;;;;;25.58;13.50;;;19.20;99.90;;;;;;5011384;28;20427;-54
2022/03/29 08:37:28;;;;;;;27.33;14.52;;;19.30;99.90;;;;;;5010977;28;20439;-54
2022/03/29 08:39:54;;;;;;;31.15;14.25;;;18.90;99.90;;;;;;5010362;28;20877;-54
2022/03/29 08:42:22;;;;;;;25.38;13.30;;;18.50;99.90;;;;;;5011124;28;20461;-53
2022/03/29 08:44:49;;;;;;;24.73;13.32;;;18.70;99.90;;;;;;5010188;28;20916;-54
2022/03/29 08:47:18;;;;;;;22.33;13.00;;;18.50;99.90;;;;;;5010621;28;20408;-53
2022/03/29 08:49:45;;;;;;;24.83;13.85;;;18.40;99.90;;;;;;5009955;28;20405;-53
2022/03/29 08:52:11;;;;;;;26.98;14.15;;;18.60;99.90;;;;;;5010466;28;20397;-54
2022/03/29 08:54:38;;;;;;;23.55;13.30;;;19.60;99.90;;;;;;5009955;28;20785;-54
2022/03/29 08:57:04;;;;;;;28.20;13.80;;;20.00;99.90;;;;;;4993516;28;20504;-52
2022/03/29 08:59:30;;;;;;;23.42;14.02;;;19.70;99.90;;;;;;5010340;28;20431;-53
2022/03/29 09:01:57;;;;;;;36.83;15.77;;;19.90;99.90;;;;;;5010192;28;20858;-52
2022/03/29 09:04:29;;;;;;;31.67;14.45;;;19.80;99.90;;;;;;5010659;28;20467;-54
2022/03/29 09:06:57;;;;;;;26.45;13.80;;;20.10;99.90;;;;;;5003325;28;20448;-52
2022/03/29 09:09:29;;;;;;;29.02;13.40;;;20.30;99.90;;;;;;4991698;28;20565;-52
2022/03/29 09:12:19;;;;;;;34.10;14.50;;;19.90;99.90;;;;;;4998795;28;20394;-52
2022/03/29 09:15:00;;;;;;;26.58;13.57;;;19.40;99.90;;;;;;4997563;28;20400;-52
2022/03/29 09:17:35;;;;;;;23.30;12.57;;;19.40;99.90;;;;;;5003619;28;20428;-54
2022/03/29 09:20:10;;;;;;;23.80;13.33;;;20.30;99.90;;;;;;4990785;28;20421;-57
2022/03/29 09:22:46;;;;;;;24.52;13.57;;;21.10;99.90;;;;;;4994735;28;20535;-54
2022/03/29 09:25:20;;;;;;;24.45;14.57;;;21.30;99.90;;;;;;5010280;28;20380;-55
2022/03/29 09:28:10;;;;;;;22.33;13.27;;;20.80;99.90;;;;;;5009496;28;20397;-54
2022/03/29 09:30:41;;;;;;;26.15;13.70;;;21.00;99.90;;;;;;4997728;28;20387;-54
2022/03/29 09:33:19;;;;;;;24.73;13.90;;;21.10;99.90;;;;;;4990497;28;20413;-54
2022/03/29 09:36:14;;;;;;;25.23;14.40;;;21.30;99.90;;;;;;4989480;28;20868;-54
2022/03/29 09:38:45;;;;;;;27.30;13.65;;;21.10;99.90;;;;;;4993047;28;20416;-54
2022/03/29 09:41:28;;;;;;;25.08;14.27;;;20.80;99.90;;;;;;4999548;28;20392;-52
2022/03/29 09:44:07;;;;;;;27.92;14.85;;;20.30;99.90;;;;;;4991207;28;20464;-52
2022/03/29 09:46:53;;;;;;;26.90;14.95;;;19.90;99.90;;;;;;5002481;28;20391;-51
2022/03/29 09:49:22;;;;;;;26.90;14.85;;;19.60;99.90;;;;;;5004146;28;20423;-53
2022/03/29 09:52:09;;;;;;;27.13;14.10;;;19.30;99.90;;;;;;4989689;28;20389;-53
2022/03/29 09:54:36;;;;;;;26.02;14.15;;;19.40;99.90;;;;;;4989516;28;20390;-52
2022/03/29 09:57:01;;;;;;;25.23;14.88;;;19.50;99.90;;;;;;4990305;28;20442;-56
2022/03/29 09:59:27;;;;;;;25.00;14.70;;;19.10;99.90;;;;;;4990167;28;20406;-52
2022/03/29 10:01:57;;;;;;;25.80;15.48;;;19.60;99.90;;;;;;5005257;28;20498;-53
2022/03/29 10:04:25;;;;;;;26.33;14.50;;;20.20;99.90;;;;;;4992102;28;20673;-52
2022/03/29 10:06:55;;;;;;;23.83;13.75;;;20.50;99.90;;;;;;5008727;28;20677;-55
2022/03/29 10:09:33;;;;;;;26.02;15.70;;;20.80;99.90;;;;;;5009707;28;20412;-54
2022/03/29 10:11:59;;;;;;;24.63;14.25;;;21.00;99.90;;;;;;5004056;28;20410;-58
2022/03/29 10:14:27;;;;;;;26.90;14.57;;;21.10;99.90;;;;;;5002954;28;20466;-54
2022/03/29 10:16:54;;;;;;;25.27;14.63;;;21.20;99.90;;;;;;5008026;28;20397;-55
2022/03/29 10:19:21;;;;;;;28.25;15.35;;;21.20;99.90;;;;;;4991923;28;20736;-55
2022/03/29 10:21:47;;;;;;;24.25;14.43;;;21.40;99.90;;;;;;5008636;28;20468;-55
2022/03/29 10:24:14;;;;;;;25.42;13.90;;;21.40;99.90;;;;;;5009618;28;20464;-55
2022/03/29 10:26:44;;;;;;;24.73;13.82;;;21.50;99.90;;;;;;5008930;28;20471;-54
2022/03/29 10:29:11;;;;;;;25.05;17.40;;;21.90;99.90;;;;;;5009727;28;20389;-54
2022/03/29 10:31:49;;;;;;;24.40;14.60;;;22.30;99.90;;;;;;5007329;28;20435;-54
2022/03/29 10:34:27;;;;;;;26.30;18.10;;;22.80;99.90;;;;;;4999348;28;20387;-54
2022/03/29 10:37:08;;;;;;;26.50;17.00;;;23.50;99.90;;;;;;4971749;28;20395;-54
2022/03/29 10:39:47;;;;;;;24.35;13.38;;;22.50;99.90;;;;;;4989259;28;20418;-52
2022/03/29 10:42:32;;;;;;;24.73;14.38;;;21.70;99.90;;;;;;4991696;28;20398;-54
2022/03/29 10:45:12;;;;;;;21.92;13.35;;;21.80;99.90;;;;;;4992920;28;20414;-53
2022/03/29 10:47:38;;;;;;;24.45;13.65;;;21.50;99.90;;;;;;5003529;28;20882;-53
2022/03/29 10:50:06;;;;;;;26.27;14.15;;;21.40;99.90;;;;;;5007769;28;21214;-53
2022/03/29 10:53:20;;;;;;;26.30;14.40;;;21.10;99.90;;;;;;5008075;28;20459;-52
2022/03/29 10:55:46;;;;;;;27.75;14.70;;;21.30;99.90;;;;;;5004196;28;20418;-54
2022/03/29 10:58:14;;;;;;;26.50;14.50;;;21.40;99.90;;;;;;5006986;28;20741;-54
2022/03/29 11:00:45;;;;;;;23.77;13.20;;;21.70;99.90;;;;;;5005908;28;20400;-53
2022/03/29 11:03:15;;;;;;;27.60;14.45;;;22.00;99.90;;;;;;5012487;28;20377;-54
2022/03/29 11:06:12;;;;;;;27.23;13.93;;;21.90;99.90;;;;;;5005335;28;20890;-53
2022/03/29 11:08:48;;;;;;;27.08;15.38;;;21.30;99.90;;;;;;4994136;28;20814;-53
2022/03/29 11:11:39;;;;;;;26.02;15.10;;;21.20;99.90;;;;;;5008852;28;20432;-54
2022/03/29 11:14:43;;;;;;;24.63;15.32;;;21.40;99.90;;;;;;5010309;28;20436;-54
2022/03/29 11:17:09;;;;;;;24.38;12.82;;;21.60;99.90;;;;;;5009957;28;20385;-54
2022/03/29 11:19:48;;;;;;;28.52;14.88;;;21.70;99.90;;;;;;5009014;28;20459;-53
2022/03/29 11:22:42;;;;;;;29.27;17.67;;;22.00;99.90;;;;;;5011701;28;20463;-54
2022/03/29 11:25:10;;;;;;;28.35;16.58;;;22.70;99.90;;;;;;5012394;28;20373;-54
2022/03/29 11:27:37;;;;;;;28.67;18.25;;;23.10;99.90;;;;;;5011535;28;20393;-53
2022/03/29 11:30:06;;;;;;;29.10;18.40;;;23.10;99.90;;;;;;5012689;28;20393;-54
2022/03/29 11:32:34;;;;;;;28.00;18.58;;;22.30;99.90;;;;;;5010578;28;20396;-53
2022/03/29 11:35:03;;;;;;;28.17;15.38;;;21.90;99.90;;;;;;5011570;28;20374;-54
2022/03/29 11:37:32;;;;;;;27.73;14.55;;;21.80;99.90;;;;;;5010695;28;20474;-54
2022/03/29 11:39:59;;;;;;;29.95;14.95;;;21.60;99.90;;;;;;5010065;28;20981;-53
2022/03/29 11:42:49;;;;;;;26.20;15.18;;;21.10;99.90;;;;;;5009597;28;20793;-55
2022/03/29 11:45:16;;;;;;;26.00;14.85;;;21.20;99.90;;;;;;5010010;28;20395;-54
2022/03/29 11:48:07;;;;;;;32.03;16.15;;;21.40;99.90;;;;;;5010841;28;20385;-53
2022/03/29 11:50:35;;;;;;;30.95;15.20;;;21.40;99.90;;;;;;5007553;28;20420;-53
2022/03/29 11:53:01;;;;;;;27.42;15.38;;;21.00;99.90;;;;;;5007881;28;20810;-54
2022/03/29 11:55:27;;;;;;;26.02;14.65;;;21.00;99.90;;;;;;5010967;28;20477;-53
2022/03/29 11:57:52;;;;;;;24.77;13.10;;;21.10;99.90;;;;;;5006826;28;20563;-54
2022/03/29 12:00:27;;;;;;;26.45;14.25;;;21.10;99.90;;;;;;5009573;28;21037;-53
2022/03/29 12:02:53;;;;;;;24.48;13.98;;;20.80;99.90;;;;;;5005926;28;20405;-53
2022/03/29 12:05:27;;;;;;;22.63;14.00;;;21.00;99.90;;;;;;4992396;28;20462;-54
2022/03/29 12:08:02;;;;;;;25.85;15.20;;;21.30;99.90;;;;;;5001249;28;20433;-53
2022/03/29 12:10:30;;;;;;;31.73;15.30;;;21.60;99.90;;;;;;5001950;28;20419;-54
2022/03/29 12:12:56;;;;;;;24.75;14.13;;;21.50;99.90;;;;;;5010080;28;20379;-54
2022/03/29 12:15:23;;;;;;;26.37;15.20;;;21.40;99.90;;;;;;5005316;28;20755;-54
2022/03/29 12:20:51;;;;;;;28.33;15.40;;;21.20;99.90;;;;;;5004858;28;20458;-53
2022/03/29 12:23:18;;;;;;;29.77;15.20;;;21.10;99.90;;;;;;5008170;28;20421;-54
2022/03/29 12:25:44;;;;;;;31.00;15.87;;;21.00;99.90;;;;;;5010001;28;20407;-54
2022/03/29 12:28:13;;;;;;;25.10;14.38;;;20.90;99.90;;;;;;4993541;28;20519;-53
2022/03/29 12:30:39;;;;;;;28.00;15.45;;;21.10;99.90;;;;;;5008572;28;20902;-53
2022/03/29 12:33:05;;;;;;;29.80;14.45;;;21.20;99.90;;;;;;5004253;28;20409;-54
2022/03/29 12:35:33;;;;;;;24.90;13.45;;;21.20;99.90;;;;;;5005816;28;20412;-54
2022/03/29 12:38:06;;;;;;;25.30;15.07;;;21.10;99.90;;;;;;5003009;28;21244;-55
2022/03/29 12:40:32;;;;;;;25.88;15.10;;;21.00;99.90;;;;;;5003148;28;20412;-54
2022/03/29 12:43:24;;;;;;;24.33;14.57;;;21.10;99.90;;;;;;5010031;28;20408;-54
2022/03/29 12:45:49;;;;;;;27.58;14.50;;;21.10;99.90;;;;;;5002489;28;20404;-54
2022/03/29 12:48:15;;;;;;;25.00;14.00;;;20.80;99.90;;;;;;5010829;28;20375;-54